createdAt,value
2022-09-28T00:01:17.713Z,99260.31
2022-09-28T00:03:47.707Z,99258.91
2022-09-28T00:06:16.033Z,99251.97
2022-09-28T00:08:42.837Z,99247.22
2022-09-28T00:11:13.765Z,99260.66
2022-09-28T00:13:41.634Z,99252.75
2022-09-28T00:16:12.470Z,99261.13
2022-09-28T00:18:39.253Z,99248.69
2022-09-28T00:21:08.763Z,99245.56
2022-09-28T00:23:56.424Z,99246.56
2022-09-28T00:26:23.927Z,99251.84
2022-09-28T00:28:55.138Z,99251.66
2022-09-28T00:31:23.383Z,99258.38
2022-09-28T00:33:51.465Z,99248.53
2022-09-28T00:36:18.810Z,99254.44
2022-09-28T00:38:46.419Z,99250.94
2022-09-28T00:41:13.395Z,99248.88
2022-09-28T00:43:40.346Z,99251.31
2022-09-28T00:46:33.040Z,99247.41
2022-09-28T00:49:11.174Z,99251.88
2022-09-28T00:51:39.823Z,99245.34
2022-09-28T00:54:09.238Z,99255.59
2022-09-28T00:56:40.579Z,99254.13
2022-09-28T00:59:09.499Z,99256.38
2022-09-28T01:01:37.104Z,99250.41
2022-09-28T01:04:05.033Z,99243.00
2022-09-28T01:06:36.035Z,99254.28
2022-09-28T01:09:06.503Z,99251.81
2022-09-28T01:11:36.775Z,99248.13
2022-09-28T01:14:09.089Z,99246.50
2022-09-28T01:16:46.283Z,99253.06
2022-09-28T01:19:49.100Z,99238.03
2022-09-28T01:22:58.235Z,99246.41
2022-09-28T01:25:41.159Z,99234.34
2022-09-28T01:28:16.327Z,99229.00
2022-09-28T01:30:50.351Z,99228.78
2022-09-28T01:33:26.311Z,99232.25
2022-09-28T01:35:57.210Z,99236.78
2022-09-28T01:38:30.432Z,99243.28
2022-09-28T01:40:59.912Z,99235.56
2022-09-28T01:43:29.009Z,99234.56
2022-09-28T01:46:16.541Z,99233.53
2022-09-28T01:48:59.460Z,99237.22
2022-09-28T01:51:35.600Z,99232.91
2022-09-28T01:54:14.873Z,99230.06
2022-09-28T01:56:57.095Z,99232.13
2022-09-28T01:59:30.957Z,99231.50
2022-09-28T02:02:09.943Z,99235.63
2022-09-28T02:05:01.812Z,99240.50
2022-09-28T02:07:45.249Z,99244.94
2022-09-28T02:10:23.135Z,99235.81
2022-09-28T02:13:01.586Z,99225.13
2022-09-28T02:16:04.460Z,99220.97
2022-09-28T02:18:31.709Z,99223.81
2022-09-28T02:21:09.636Z,99221.59
2022-09-28T02:23:39.708Z,99217.28
2022-09-28T02:26:14.307Z,99211.53
2022-09-28T02:28:41.148Z,99211.16
2022-09-28T02:31:07.922Z,99214.78
2022-09-28T02:33:38.433Z,99211.50
2022-09-28T02:36:06.375Z,99211.09
2022-09-28T02:38:38.023Z,99205.19
2022-09-28T02:41:38.597Z,99218.50
2022-09-28T02:44:37.940Z,99230.59
2022-09-28T02:47:11.742Z,99242.22
2022-09-28T02:49:47.430Z,99244.47
2022-09-28T02:52:33.526Z,99245.09
2022-09-28T02:55:10.974Z,99245.19
2022-09-28T02:58:05.074Z,99245.13
2022-09-28T03:00:38.690Z,99252.13
2022-09-28T03:03:24.227Z,99257.03
2022-09-28T03:06:03.483Z,99267.28
2022-09-28T03:08:49.411Z,99261.16
2022-09-28T03:11:23.145Z,99257.09
2022-09-28T03:13:51.920Z,99253.66
2022-09-28T03:16:21.086Z,99244.81
2022-09-28T03:18:49.408Z,99253.03
2022-09-28T03:21:16.692Z,99245.88
2022-09-28T03:23:43.563Z,99244.84
2022-09-28T03:26:12.676Z,99237.44
2022-09-28T03:28:40.151Z,99241.56
2022-09-28T03:31:09.678Z,99243.59
2022-09-28T03:33:36.542Z,99239.47
2022-09-28T03:36:03.537Z,99236.47
2022-09-28T03:38:30.867Z,99233.03
2022-09-28T03:40:59.821Z,99232.00
2022-09-28T03:43:30.943Z,99225.63
2022-09-28T03:46:01.289Z,99233.38
2022-09-28T03:48:33.002Z,99230.50
2022-09-28T03:51:09.252Z,99238.66
2022-09-28T03:53:37.058Z,99233.16
2022-09-28T03:56:15.681Z,99239.47
2022-09-28T03:58:42.967Z,99229.44
2022-09-28T04:01:17.020Z,99235.13
2022-09-28T04:03:46.778Z,99222.81
2022-09-28T04:06:14.226Z,99220.09
2022-09-28T04:08:40.896Z,99213.25
2022-09-28T04:11:08.637Z,99212.59
2022-09-28T04:13:35.507Z,99213.78
2022-09-28T04:16:02.404Z,99220.50
2022-09-28T04:18:35.220Z,99212.25
2022-09-28T04:21:25.267Z,99214.50
2022-09-28T04:24:00.830Z,99209.59
2022-09-28T04:26:28.414Z,99210.41
2022-09-28T04:29:15.097Z,99213.63
2022-09-28T04:31:52.427Z,99212.75
2022-09-28T04:34:22.914Z,99208.66
2022-09-28T04:36:50.096Z,99208.34
2022-09-28T04:39:19.215Z,99208.84
2022-09-28T04:41:51.852Z,99208.94
2022-09-28T04:44:18.943Z,99207.28
2022-09-28T04:46:47.286Z,99214.63
2022-09-28T04:49:29.360Z,99201.88
2022-09-28T04:52:13.537Z,99198.47
2022-09-28T04:54:44.236Z,99183.13
2022-09-28T04:57:11.440Z,99191.06
2022-09-28T04:59:38.931Z,99194.03
2022-09-28T05:02:05.706Z,99189.84
2022-09-28T05:04:51.052Z,99193.69
2022-09-28T05:07:46.019Z,99198.56
2022-09-28T05:10:13.378Z,99196.91
2022-09-28T05:12:40.506Z,99186.28
2022-09-28T05:15:07.629Z,99192.31
2022-09-28T05:17:34.317Z,99194.84
2022-09-28T05:20:20.265Z,99203.91
2022-09-28T05:22:47.030Z,99201.38
2022-09-28T05:25:13.791Z,99195.97
2022-09-28T05:27:56.821Z,99204.44
2022-09-28T05:30:36.847Z,99205.84
2022-09-28T05:33:27.454Z,99205.16
2022-09-28T05:36:11.028Z,99204.00
2022-09-28T05:38:38.229Z,99210.38
2022-09-28T05:41:06.796Z,99206.53
2022-09-28T05:43:33.864Z,99203.13
2022-09-28T05:46:03.460Z,99203.41
2022-09-28T05:48:30.527Z,99198.94
2022-09-28T05:50:58.856Z,99196.78
2022-09-28T05:53:26.589Z,99203.38
2022-09-28T05:55:53.260Z,99208.53
2022-09-28T05:58:20.023Z,99203.69
2022-09-28T06:00:47.222Z,99204.13
2022-09-28T06:03:14.685Z,99206.22
2022-09-28T06:05:41.834Z,99202.41
2022-09-28T06:08:12.882Z,99198.50
2022-09-28T06:10:44.224Z,99203.91
2022-09-28T06:13:14.642Z,99208.63
2022-09-28T06:15:42.740Z,99210.31
